createdAt,value
2022-10-16T00:00:00.717Z,11.98
2022-10-16T00:03:19.064Z,11.90
2022-10-16T00:06:37.587Z,13.05
2022-10-16T00:09:56.790Z,12.97
2022-10-16T00:16:28.024Z,11.45
2022-10-16T00:19:44.007Z,11.60
2022-10-16T00:23:01.559Z,12.13
2022-10-16T00:26:20.989Z,14.45
2022-10-16T00:29:37.193Z,12.98
2022-10-16T00:32:55.082Z,14.28
2022-10-16T00:36:14.450Z,13.20
2022-10-16T00:42:44.016Z,14.45
2022-10-16T00:46:00.185Z,12.90
2022-10-16T00:49:19.851Z,12.43
2022-10-16T00:52:36.034Z,14.43
2022-10-16T00:55:52.263Z,16.30
2022-10-16T00:59:11.826Z,13.28
2022-10-16T01:02:28.479Z,12.15
2022-10-16T01:05:51.865Z,11.53
2022-10-16T01:09:18.282Z,12.30
2022-10-16T01:12:47.060Z,14.90
2022-10-16T01:16:08.245Z,12.23
2022-10-16T01:19:30.361Z,12.48
2022-10-16T01:22:54.578Z,13.30
2022-10-16T01:26:47.613Z,12.65
2022-10-16T01:30:11.548Z,14.70
2022-10-16T01:33:31.195Z,11.88
2022-10-16T01:36:52.409Z,13.25
2022-10-16T01:40:14.556Z,15.35
2022-10-16T01:43:33.821Z,15.58
2022-10-16T01:50:09.499Z,14.05
2022-10-16T01:53:27.909Z,12.85
2022-10-16T01:56:46.539Z,14.18
2022-10-16T02:00:06.893Z,13.20
2022-10-16T02:03:28.121Z,13.15
2022-10-16T02:06:45.429Z,12.73
2022-10-16T02:10:02.265Z,15.30
2022-10-16T02:13:23.185Z,16.80
2022-10-16T02:16:46.660Z,15.85
2022-10-16T02:20:06.876Z,13.10
2022-10-16T02:23:27.530Z,13.30
2022-10-16T02:26:47.727Z,13.30
2022-10-16T02:30:09.750Z,13.65
2022-10-16T02:33:28.548Z,13.00
2022-10-16T02:36:46.466Z,13.85
2022-10-16T02:40:04.455Z,12.65
2022-10-16T02:43:21.469Z,13.80
2022-10-16T02:46:37.535Z,12.10
2022-10-16T02:49:54.252Z,12.58
2022-10-16T02:53:10.469Z,14.43
2022-10-16T02:56:26.883Z,13.15
2022-10-16T02:59:45.207Z,12.43
2022-10-16T03:03:01.863Z,13.30
2022-10-16T03:06:17.778Z,14.95
2022-10-16T03:09:33.784Z,12.88
2022-10-16T03:12:49.787Z,15.20
2022-10-16T03:16:05.880Z,13.28
2022-10-16T03:19:22.385Z,13.45
2022-10-16T03:22:38.465Z,13.45
2022-10-16T03:25:54.486Z,12.58
2022-10-16T03:29:10.821Z,12.73
2022-10-16T03:32:31.193Z,12.98
2022-10-16T03:35:47.281Z,12.33
2022-10-16T03:39:03.307Z,13.18
2022-10-16T03:42:19.620Z,12.60
2022-10-16T03:45:35.936Z,13.08
2022-10-16T03:48:52.023Z,15.10
2022-10-16T03:52:08.542Z,13.63
2022-10-16T03:55:25.337Z,15.98
2022-10-16T03:58:42.049Z,14.13
2022-10-16T04:01:58.128Z,13.23
2022-10-16T04:05:15.423Z,17.45
2022-10-16T04:08:31.527Z,13.15
2022-10-16T04:11:50.642Z,12.48
2022-10-16T04:15:07.816Z,14.13
2022-10-16T04:18:23.970Z,13.73
2022-10-16T04:21:40.087Z,12.73
2022-10-16T04:24:56.133Z,14.05
2022-10-16T04:28:12.155Z,13.33
2022-10-16T04:31:28.372Z,13.63
2022-10-16T04:34:45.613Z,14.83
2022-10-16T04:38:03.491Z,15.03
2022-10-16T04:41:19.586Z,14.05
2022-10-16T04:44:35.606Z,12.60
2022-10-16T04:47:51.655Z,14.53
2022-10-16T04:51:07.789Z,14.30
2022-10-16T04:54:23.978Z,15.53
2022-10-16T04:57:40.540Z,13.55
2022-10-16T05:00:56.682Z,12.70
2022-10-16T05:04:12.706Z,12.45
2022-10-16T05:07:30.960Z,14.93
2022-10-16T05:10:47.376Z,12.73
2022-10-16T05:14:04.837Z,16.23
2022-10-16T05:17:21.363Z,15.00
2022-10-16T05:20:37.449Z,14.48
2022-10-16T05:23:53.464Z,15.15
2022-10-16T05:27:09.553Z,14.45
2022-10-16T05:30:25.977Z,15.43
2022-10-16T05:33:42.180Z,14.15
2022-10-16T05:36:59.680Z,13.05
2022-10-16T05:40:18.488Z,19.60
2022-10-16T05:43:35.643Z,17.23
2022-10-16T05:46:52.444Z,16.38
2022-10-16T05:50:08.542Z,15.03
2022-10-16T05:53:26.474Z,13.48
2022-10-16T05:56:42.813Z,13.75
2022-10-16T05:59:58.761Z,16.15
2022-10-16T06:03:15.040Z,16.40
2022-10-16T06:06:38.002Z,14.43
2022-10-16T06:09:56.323Z,18.03
2022-10-16T06:13:12.352Z,15.95
2022-10-16T06:16:29.049Z,14.83
2022-10-16T06:19:45.020Z,17.03
2022-10-16T06:23:01.047Z,16.45
2022-10-16T06:26:20.157Z,14.38
2022-10-16T06:29:36.213Z,14.75
2022-10-16T06:32:52.291Z,14.43
2022-10-16T06:36:14.774Z,15.78
2022-10-16T06:39:30.975Z,16.33
2022-10-16T06:42:47.200Z,14.25
2022-10-16T06:46:05.977Z,14.30
2022-10-16T06:49:24.148Z,15.55
2022-10-16T06:52:41.818Z,14.60
2022-10-16T06:56:00.100Z,16.88
2022-10-16T07:02:32.834Z,20.28
2022-10-16T07:05:50.728Z,16.23
2022-10-16T07:09:07.231Z,16.33
2022-10-16T07:12:26.039Z,18.33
2022-10-16T07:15:42.502Z,15.35
2022-10-16T07:19:00.957Z,16.45
2022-10-16T07:22:17.414Z,17.40
2022-10-16T07:25:33.725Z,17.05
2022-10-16T07:28:51.176Z,15.90
2022-10-16T07:32:07.917Z,16.75
2022-10-16T07:35:24.264Z,16.45
2022-10-16T07:38:40.613Z,17.40
2022-10-16T07:41:56.818Z,18.33
2022-10-16T07:45:15.014Z,18.60
2022-10-16T07:48:33.393Z,15.98
2022-10-16T07:51:49.610Z,17.68
2022-10-16T07:55:06.094Z,20.75
2022-10-16T07:58:22.277Z,16.78
2022-10-16T08:01:44.331Z,14.63
2022-10-16T08:05:01.148Z,18.50
2022-10-16T08:08:20.350Z,17.65
2022-10-16T08:11:36.786Z,16.70
2022-10-16T08:14:54.217Z,16.10
2022-10-16T08:18:12.803Z,16.75
2022-10-16T08:21:31.255Z,16.68
2022-10-16T08:24:47.288Z,14.83
2022-10-16T08:28:05.091Z,13.98
2022-10-16T08:31:23.432Z,15.63
2022-10-16T08:34:40.258Z,15.43
2022-10-16T08:37:56.473Z,15.60
2022-10-16T08:41:27.897Z,15.38
2022-10-16T08:45:15.684Z,15.03
2022-10-16T08:48:36.387Z,13.40
2022-10-16T08:51:52.939Z,15.18
2022-10-16T08:55:13.205Z,14.43
2022-10-16T08:58:32.953Z,13.83
2022-10-16T09:01:53.641Z,42.10
2022-10-16T09:05:36.176Z,20.38
2022-10-16T09:09:08.862Z,14.03
2022-10-16T09:12:29.860Z,12.53
2022-10-16T09:15:52.733Z,14.03
2022-10-16T09:19:14.788Z,10.78
2022-10-16T09:22:34.936Z,12.03
2022-10-16T09:25:55.196Z,10.55
2022-10-16T09:29:11.627Z,11.28
2022-10-16T09:32:30.330Z,11.18
2022-10-16T09:35:51.293Z,10.60
2022-10-16T09:39:17.801Z,10.25
2022-10-16T09:42:41.538Z,11.18
2022-10-16T09:46:07.611Z,9.00
2022-10-16T09:49:33.438Z,6.18
2022-10-16T09:52:49.837Z,7.53
2022-10-16T09:56:11.725Z,6.73
2022-10-16T09:59:31.837Z,8.18
2022-10-16T10:02:48.992Z,11.50
2022-10-16T10:06:08.231Z,12.90
2022-10-16T10:09:32.658Z,8.70
2022-10-16T10:12:50.727Z,7.25
2022-10-16T10:16:10.007Z,8.43
2022-10-16T10:19:32.747Z,6.23
2022-10-16T10:22:53.959Z,9.18
2022-10-16T10:26:14.256Z,5.88
2022-10-16T10:29:47.039Z,6.83
2022-10-16T10:33:15.844Z,7.38
2022-10-16T10:36:41.210Z,8.03
2022-10-16T10:40:03.261Z,8.23
2022-10-16T10:43:28.831Z,7.85
2022-10-16T10:46:48.765Z,8.83
2022-10-16T10:50:13.130Z,6.90
2022-10-16T10:53:44.349Z,6.25
2022-10-16T10:57:06.846Z,6.83
2022-10-16T11:00:30.119Z,6.80
2022-10-16T11:04:15.659Z,6.55
2022-10-16T11:07:37.924Z,8.65
2022-10-16T11:11:00.463Z,6.63
2022-10-16T11:14:23.505Z,8.28
2022-10-16T11:17:45.278Z,9.10
2022-10-16T11:21:06.590Z,6.08
2022-10-16T11:24:27.789Z,5.55
2022-10-16T11:27:50.706Z,7.08
2022-10-16T11:31:12.113Z,8.03
2022-10-16T11:34:35.533Z,30.58
2022-10-16T11:38:00.611Z,49.45
2022-10-16T11:41:25.024Z,14.45
2022-10-16T11:44:57.181Z,8.95
2022-10-16T11:48:18.832Z,6.33
2022-10-16T11:51:40.438Z,5.98
2022-10-16T11:55:00.927Z,5.95
2022-10-16T11:58:22.365Z,7.50
2022-10-16T12:01:47.293Z,5.58
2022-10-16T12:05:08.435Z,7.63
2022-10-16T12:08:25.674Z,6.23
2022-10-16T12:11:49.362Z,6.00
2022-10-16T12:18:51.691Z,6.80
2022-10-16T12:22:09.820Z,5.93
2022-10-16T12:25:36.467Z,6.97
2022-10-16T12:28:53.476Z,7.90
2022-10-16T12:32:19.289Z,6.88
2022-10-16T12:35:33.859Z,6.10
2022-10-16T12:38:57.226Z,6.28
2022-10-16T12:42:28.412Z,5.30
2022-10-16T12:45:47.318Z,6.43
2022-10-16T12:49:13.615Z,6.15
2022-10-16T12:52:45.103Z,10.65
2022-10-16T12:56:11.981Z,5.15
2022-10-16T12:59:38.012Z,5.43
2022-10-16T13:03:37.404Z,4.48
2022-10-16T13:06:59.960Z,4.30
2022-10-16T13:10:28.183Z,4.43
2022-10-16T13:14:14.706Z,27.40
2022-10-16T13:17:36.017Z,14.05
2022-10-16T13:21:06.562Z,9.30
2022-10-16T13:24:32.961Z,5.90
2022-10-16T13:27:54.904Z,5.58
2022-10-16T13:31:14.150Z,6.08
2022-10-16T13:34:32.512Z,4.93
2022-10-16T13:37:48.648Z,5.68
2022-10-16T13:41:07.775Z,6.13
2022-10-16T13:44:27.996Z,6.50
2022-10-16T13:47:44.543Z,5.65
2022-10-16T13:51:15.085Z,4.53
2022-10-16T13:54:34.805Z,4.60
2022-10-16T13:57:52.876Z,4.20
2022-10-16T14:01:11.843Z,5.20
2022-10-16T14:07:43.866Z,4.53
2022-10-16T14:11:02.735Z,7.93
2022-10-16T14:14:23.171Z,4.28
2022-10-16T14:17:42.146Z,7.63
2022-10-16T14:21:01.759Z,5.73
2022-10-16T14:24:34.128Z,4.18
2022-10-16T14:27:50.560Z,4.58
2022-10-16T14:31:09.292Z,4.33
2022-10-16T14:34:38.490Z,5.93
2022-10-16T14:37:56.612Z,5.70
2022-10-16T14:41:17.280Z,7.08
2022-10-16T14:44:38.839Z,6.13
2022-10-16T14:48:02.926Z,4.80
2022-10-16T14:51:24.092Z,4.90
2022-10-16T14:54:40.315Z,7.88
2022-10-16T14:57:59.780Z,5.85
2022-10-16T15:01:16.218Z,6.18
2022-10-16T15:04:33.789Z,4.75
2022-10-16T15:07:50.872Z,5.45
2022-10-16T15:11:07.060Z,5.38
2022-10-16T15:14:24.216Z,4.50
2022-10-16T15:17:40.588Z,4.80
2022-10-16T15:20:59.245Z,7.95
2022-10-16T15:24:21.718Z,5.68
2022-10-16T15:27:39.691Z,7.58
2022-10-16T15:30:58.589Z,7.18
2022-10-16T15:37:30.764Z,6.15
2022-10-16T15:40:47.544Z,7.28
2022-10-16T15:44:03.779Z,8.83
2022-10-16T15:47:20.112Z,7.60
2022-10-16T15:50:37.796Z,7.10
2022-10-16T15:53:54.752Z,8.23
2022-10-16T15:57:11.275Z,7.10
2022-10-16T16:00:28.918Z,8.58
2022-10-16T16:03:49.464Z,11.83
2022-10-16T16:07:07.759Z,9.45
2022-10-16T16:10:24.915Z,7.83
2022-10-16T16:13:41.826Z,7.43
2022-10-16T16:16:59.173Z,8.70
2022-10-16T16:20:18.327Z,8.20
2022-10-16T16:26:49.743Z,9.20
2022-10-16T16:30:09.728Z,9.58
2022-10-16T16:33:26.661Z,9.78
2022-10-16T16:36:43.614Z,9.68
2022-10-16T16:40:04.403Z,8.28
2022-10-16T16:43:21.826Z,11.78
2022-10-16T16:46:38.742Z,9.10
2022-10-16T16:49:54.869Z,11.85
2022-10-16T16:53:11.414Z,8.88
2022-10-16T16:56:28.504Z,9.63
2022-10-16T16:59:44.990Z,13.75
2022-10-16T17:03:01.391Z,10.40
2022-10-16T17:06:21.065Z,10.95
2022-10-16T17:09:38.120Z,10.65
2022-10-16T17:16:10.576Z,15.65
2022-10-16T17:19:28.804Z,11.70
2022-10-16T17:26:00.603Z,10.33
2022-10-16T17:29:19.677Z,12.03
2022-10-16T17:35:55.478Z,16.45
2022-10-16T17:39:18.416Z,13.18
2022-10-16T17:42:34.519Z,13.25
2022-10-16T17:45:50.636Z,13.73
2022-10-16T17:49:07.397Z,14.83
2022-10-16T17:52:25.215Z,11.88
2022-10-16T17:55:45.097Z,11.78
2022-10-16T17:59:04.876Z,11.08
2022-10-16T18:02:21.414Z,12.33
2022-10-16T18:05:38.222Z,11.10
2022-10-16T18:08:54.548Z,11.35
2022-10-16T18:12:11.622Z,12.55
2022-10-16T18:15:33.523Z,11.13
2022-10-16T18:18:52.280Z,11.35
2022-10-16T18:22:08.921Z,11.05
2022-10-16T18:25:25.328Z,10.50
2022-10-16T18:28:44.755Z,11.78
2022-10-16T18:32:01.571Z,11.00
2022-10-16T18:35:18.503Z,10.15
2022-10-16T18:38:34.811Z,10.93
2022-10-16T18:41:54.654Z,12.63
2022-10-16T18:45:12.132Z,12.78
2022-10-16T18:48:28.353Z,13.83
2022-10-16T18:51:48.242Z,13.45
2022-10-16T18:55:07.366Z,12.08
2022-10-16T18:58:24.845Z,12.45
2022-10-16T19:01:44.478Z,12.38
2022-10-16T19:05:03.877Z,11.73
2022-10-16T19:08:20.315Z,11.38
2022-10-16T19:11:41.382Z,10.80
2022-10-16T19:14:57.703Z,11.95
2022-10-16T19:18:14.323Z,15.53
2022-10-16T19:21:32.420Z,13.33
2022-10-16T19:24:49.351Z,12.10
2022-10-16T19:28:07.437Z,15.23
2022-10-16T19:31:28.751Z,14.13
2022-10-16T19:38:01.138Z,12.63
2022-10-16T19:41:21.669Z,16.00
2022-10-16T19:44:38.092Z,15.78
2022-10-16T19:47:55.615Z,11.83
2022-10-16T19:51:12.236Z,27.93
2022-10-16T19:54:28.500Z,14.55
2022-10-16T19:57:46.142Z,13.35
2022-10-16T20:01:02.569Z,14.50
2022-10-16T20:04:19.651Z,13.13
2022-10-16T20:07:36.097Z,13.30
2022-10-16T20:11:02.495Z,12.68
2022-10-16T20:14:19.288Z,14.05
2022-10-16T20:17:40.182Z,12.45
2022-10-16T20:20:58.502Z,13.70
2022-10-16T20:24:16.337Z,17.20
2022-10-16T20:27:32.807Z,15.10
2022-10-16T20:30:55.308Z,16.70
2022-10-16T20:34:17.455Z,12.60
2022-10-16T20:37:33.768Z,15.03
2022-10-16T20:40:52.012Z,17.25
2022-10-16T20:44:09.798Z,13.45
2022-10-16T20:47:28.398Z,14.28
2022-10-16T20:50:45.301Z,15.20
2022-10-16T20:54:08.765Z,14.63
2022-10-16T20:57:25.021Z,11.48
2022-10-16T21:00:41.473Z,15.40
2022-10-16T21:04:02.999Z,12.65
2022-10-16T21:07:21.405Z,15.03
2022-10-16T21:10:41.767Z,15.98
2022-10-16T21:13:59.364Z,12.78
2022-10-16T21:17:18.709Z,13.40
2022-10-16T21:23:49.395Z,17.05
2022-10-16T21:27:05.617Z,12.53
2022-10-16T21:30:26.228Z,14.30
2022-10-16T21:36:55.687Z,15.60
2022-10-16T21:40:13.258Z,15.78
2022-10-16T21:43:29.743Z,15.75
2022-10-16T21:46:47.912Z,15.48
2022-10-16T21:50:03.941Z,13.38
2022-10-16T21:53:21.520Z,16.38
2022-10-16T21:56:38.899Z,12.43
2022-10-16T21:59:56.871Z,14.28
2022-10-16T22:03:13.106Z,16.40
2022-10-16T22:06:34.078Z,12.90
2022-10-16T22:13:03.919Z,14.88
2022-10-16T22:16:20.743Z,14.50
2022-10-16T22:19:36.737Z,16.15
2022-10-16T22:22:53.740Z,15.30
2022-10-16T22:26:14.129Z,13.48
2022-10-16T22:29:30.507Z,13.40
2022-10-16T22:32:46.505Z,12.38
2022-10-16T22:36:03.176Z,13.68
2022-10-16T22:39:19.505Z,14.03
2022-10-16T22:42:37.123Z,13.70
2022-10-16T22:45:53.089Z,14.83
2022-10-16T22:49:14.567Z,17.10
2022-10-16T22:52:30.864Z,12.93
2022-10-16T22:55:47.062Z,13.83
2022-10-16T22:59:02.997Z,12.98
2022-10-16T23:02:19.652Z,14.53
2022-10-16T23:05:35.934Z,14.80
2022-10-16T23:08:52.227Z,13.48
2022-10-16T23:12:09.015Z,12.43
2022-10-16T23:15:25.535Z,14.95
2022-10-16T23:18:41.962Z,13.43
2022-10-16T23:21:57.980Z,14.40
2022-10-16T23:25:16.368Z,14.43
2022-10-16T23:28:33.741Z,12.67
2022-10-16T23:31:49.815Z,14.50
2022-10-16T23:35:05.785Z,18.08
2022-10-16T23:38:21.872Z,15.10
2022-10-16T23:41:40.150Z,13.18
2022-10-16T23:44:56.119Z,14.18
2022-10-16T23:48:13.028Z,14.50
2022-10-16T23:51:29.486Z,15.25
2022-10-16T23:54:46.860Z,14.75
2022-10-16T23:58:03.096Z,14.98
